createdAt,value
2022-09-26T00:01:46.058Z,8.12
2022-09-26T00:04:22.743Z,8.05
2022-09-26T00:06:52.520Z,8.02
2022-09-26T00:09:22.447Z,8.13
2022-09-26T00:11:51.169Z,8.00
2022-09-26T00:14:23.225Z,7.98
2022-09-26T00:16:53.201Z,7.98
2022-09-26T00:19:22.532Z,7.97
2022-09-26T00:21:51.425Z,7.99
2022-09-26T00:24:20.489Z,7.95
2022-09-26T00:26:49.586Z,7.91
2022-09-26T00:29:18.342Z,7.83
2022-09-26T00:31:49.206Z,7.74
2022-09-26T00:34:20.632Z,7.68
2022-09-26T00:36:50.470Z,7.65
2022-09-26T00:39:19.389Z,7.74
2022-09-26T00:41:48.279Z,7.63
2022-09-26T00:44:50.676Z,7.56
2022-09-26T00:47:41.192Z,7.54
2022-09-26T00:50:17.049Z,7.55
2022-09-26T00:52:51.119Z,7.56
2022-09-26T00:55:23.050Z,7.53
2022-09-26T00:57:55.034Z,7.45
2022-09-26T01:00:24.084Z,7.39
2022-09-26T01:02:53.997Z,7.34
2022-09-26T01:05:25.693Z,7.37
2022-09-26T01:07:54.012Z,7.39
2022-09-26T01:10:23.197Z,7.45
2022-09-26T01:12:52.408Z,7.40
2022-09-26T01:15:23.498Z,7.44
2022-09-26T01:17:52.822Z,7.37
2022-09-26T01:20:36.755Z,7.32
2022-09-26T01:23:49.631Z,7.34
2022-09-26T01:26:31.423Z,7.34
2022-09-26T01:29:17.517Z,7.35
2022-09-26T01:32:07.683Z,7.35
2022-09-26T01:34:42.320Z,7.29
2022-09-26T01:37:19.717Z,7.24
2022-09-26T01:39:56.450Z,7.19
2022-09-26T01:42:30.452Z,7.34
2022-09-26T01:45:02.989Z,7.58
2022-09-26T01:47:41.082Z,7.58
2022-09-26T01:50:16.480Z,7.44
2022-09-26T01:52:47.982Z,7.47
2022-09-26T01:55:19.306Z,7.37
2022-09-26T01:57:50.429Z,7.00
2022-09-26T02:00:19.839Z,6.94
2022-09-26T02:02:51.584Z,6.94
2022-09-26T02:05:28.204Z,6.95
2022-09-26T02:07:59.952Z,6.87
2022-09-26T02:10:31.531Z,6.79
2022-09-26T02:13:04.745Z,6.86
2022-09-26T02:15:35.977Z,6.84
2022-09-26T02:18:15.120Z,6.76
2022-09-26T02:20:49.960Z,6.77
2022-09-26T02:23:18.845Z,7.05
2022-09-26T02:25:48.037Z,6.64
2022-09-26T02:28:17.312Z,6.63
2022-09-26T02:30:47.431Z,6.58
2022-09-26T02:33:17.811Z,6.50
2022-09-26T02:35:54.296Z,6.50
2022-09-26T02:38:23.841Z,6.46
2022-09-26T02:41:05.464Z,6.48
2022-09-26T02:43:45.723Z,6.53
2022-09-26T02:46:26.751Z,6.53
2022-09-26T02:49:08.233Z,6.38
2022-09-26T02:51:49.912Z,6.29
2022-09-26T02:54:24.338Z,6.22
2022-09-26T02:57:05.071Z,6.20
2022-09-26T02:59:41.455Z,6.15
2022-09-26T03:02:15.927Z,6.20
2022-09-26T03:04:53.433Z,6.29
2022-09-26T03:07:25.627Z,6.19
2022-09-26T03:09:54.815Z,6.16
2022-09-26T03:12:24.872Z,6.08
2022-09-26T03:14:58.428Z,6.04
2022-09-26T03:17:28.329Z,6.03
2022-09-26T03:20:03.420Z,6.12
2022-09-26T03:23:07.795Z,5.77
2022-09-26T03:25:36.444Z,5.72
2022-09-26T03:28:12.453Z,5.70
2022-09-26T03:30:42.033Z,5.69
2022-09-26T03:33:30.644Z,5.66
2022-09-26T03:36:00.582Z,5.59
2022-09-26T03:38:30.691Z,5.58
2022-09-26T03:41:09.815Z,5.55
2022-09-26T03:43:57.785Z,5.51
2022-09-26T03:46:29.455Z,5.49
2022-09-26T03:48:59.149Z,5.49
2022-09-26T03:51:27.979Z,5.47
2022-09-26T03:53:59.260Z,5.49
2022-09-26T03:56:29.031Z,5.50
2022-09-26T03:58:57.710Z,5.53
2022-09-26T04:01:26.715Z,5.47
2022-09-26T04:03:55.562Z,5.46
2022-09-26T04:06:24.392Z,5.50
2022-09-26T04:08:54.301Z,5.49
2022-09-26T04:11:25.247Z,5.54
2022-09-26T04:13:54.505Z,5.54
2022-09-26T04:16:30.551Z,5.59
2022-09-26T04:19:12.205Z,5.70
2022-09-26T04:21:42.163Z,5.70
2022-09-26T04:24:14.848Z,5.69
2022-09-26T04:26:46.098Z,5.72
2022-09-26T04:29:15.577Z,5.73
2022-09-26T04:32:19.681Z,5.75
2022-09-26T04:35:08.054Z,5.80
2022-09-26T04:37:38.236Z,5.81
2022-09-26T04:40:07.826Z,5.76
2022-09-26T04:42:42.747Z,5.79
2022-09-26T04:45:12.110Z,5.79
2022-09-26T04:47:41.154Z,5.78
2022-09-26T04:50:30.344Z,5.81
2022-09-26T04:53:07.506Z,5.85
2022-09-26T04:55:44.825Z,5.81
2022-09-26T04:58:15.684Z,5.80
2022-09-26T05:00:45.651Z,5.89
2022-09-26T05:03:17.313Z,5.89
2022-09-26T05:05:47.575Z,5.89
2022-09-26T05:08:16.897Z,5.93
2022-09-26T05:10:46.650Z,5.74
2022-09-26T05:13:16.801Z,5.76
2022-09-26T05:15:46.457Z,5.72
2022-09-26T05:18:15.672Z,5.92
2022-09-26T05:20:48.446Z,5.96
2022-09-26T05:23:43.704Z,5.96
2022-09-26T05:26:20.510Z,6.17
2022-09-26T05:28:53.100Z,6.41
2022-09-26T05:31:29.205Z,6.44
2022-09-26T05:33:58.152Z,6.59
2022-09-26T05:36:27.353Z,6.59
2022-09-26T05:38:56.185Z,6.74
2022-09-26T05:41:23.995Z,6.91
2022-09-26T05:43:56.107Z,6.65
2022-09-26T05:46:25.966Z,6.95
2022-09-26T05:48:57.316Z,7.20
2022-09-26T05:51:27.244Z,7.45
2022-09-26T05:53:57.836Z,7.68
2022-09-26T05:56:28.719Z,7.90
2022-09-26T05:59:22.655Z,8.28
2022-09-26T06:02:29.594Z,8.72
2022-09-26T06:05:16.898Z,8.90
2022-09-26T06:08:06.088Z,8.27
2022-09-26T06:10:45.378Z,7.60
2022-09-26T06:13:15.468Z,7.48
2022-09-26T06:15:52.239Z,7.47
2022-09-26T06:18:21.087Z,7.57
2022-09-26T06:20:50.025Z,7.21
2022-09-26T06:23:18.785Z,7.15
2022-09-26T06:25:48.575Z,7.09
2022-09-26T06:28:18.223Z,6.92
2022-09-26T06:30:47.076Z,6.72
2022-09-26T06:33:32.568Z,6.84
2022-09-26T06:36:28.583Z,6.78
2022-09-26T06:38:57.988Z,7.10
2022-09-26T06:41:28.718Z,7.56
2022-09-26T06:43:57.934Z,7.48
2022-09-26T06:46:48.997Z,8.04
2022-09-26T06:49:24.759Z,8.72
2022-09-26T06:52:15.940Z,9.23
2022-09-26T06:54:45.441Z,9.68
2022-09-26T06:57:15.549Z,10.08
2022-09-26T06:59:44.468Z,10.74
2022-09-26T07:02:28.679Z,10.86
2022-09-26T07:05:18.620Z,10.82
2022-09-26T07:07:53.457Z,11.08
2022-09-26T07:10:29.124Z,10.97
2022-09-26T07:13:05.858Z,11.46
2022-09-26T07:15:34.926Z,12.89
2022-09-26T07:18:12.091Z,12.48
2022-09-26T07:20:57.493Z,11.36
2022-09-26T07:23:47.854Z,10.50
2022-09-26T07:26:18.851Z,10.09
2022-09-26T07:28:52.210Z,10.23
2022-09-26T07:31:24.341Z,10.16
2022-09-26T07:34:18.319Z,10.87
2022-09-26T07:36:49.675Z,10.43
2022-09-26T07:39:18.530Z,10.87
2022-09-26T07:41:47.524Z,12.68
2022-09-26T07:45:08.723Z,14.43
2022-09-26T07:47:22.174Z,16.30
2022-09-26T07:50:08.510Z,18.18
2022-09-26T07:52:46.849Z,19.70
2022-09-26T07:55:23.088Z,18.01
2022-09-26T07:58:10.345Z,20.50
2022-09-26T08:01:00.184Z,23.07
2022-09-26T08:03:49.555Z,24.92
2022-09-26T08:06:27.897Z,23.87
2022-09-26T08:08:58.425Z,22.47
2022-09-26T08:11:47.543Z,18.88
2022-09-26T08:14:37.595Z,19.63
2022-09-26T08:17:23.399Z,21.62
2022-09-26T08:19:51.952Z,24.12
2022-09-26T08:22:20.793Z,20.21
2022-09-26T08:24:54.959Z,18.93
2022-09-26T08:27:38.654Z,21.17
2022-09-26T08:30:10.708Z,23.41
2022-09-26T08:32:39.744Z,19.72
2022-09-26T08:35:15.005Z,18.81
2022-09-26T08:37:56.534Z,18.08
2022-09-26T08:40:49.702Z,17.80
2022-09-26T08:43:59.479Z,17.76
2022-09-26T08:46:52.600Z,16.66
2022-09-26T08:49:44.279Z,16.75
2022-09-26T08:52:23.890Z,18.96
2022-09-26T08:54:54.740Z,19.79
2022-09-26T08:57:32.038Z,21.99
2022-09-26T09:00:00.872Z,21.34
2022-09-26T09:02:40.391Z,19.41
2022-09-26T09:05:17.577Z,21.02
2022-09-26T09:07:49.917Z,20.64
2022-09-26T09:10:20.734Z,18.83
2022-09-26T09:13:06.877Z,20.95
2022-09-26T09:15:57.027Z,21.04
2022-09-26T09:18:56.599Z,21.22
2022-09-26T09:21:52.321Z,20.33
2022-09-26T09:24:47.629Z,20.14
2022-09-26T09:30:21.332Z,24.11
2022-09-26T09:32:59.295Z,20.93
2022-09-26T09:35:49.026Z,18.80
2022-09-26T09:38:40.749Z,18.44
2022-09-26T09:41:36.119Z,19.02
2022-09-26T09:44:06.988Z,18.53
2022-09-26T09:46:41.141Z,18.39
2022-09-26T09:49:20.862Z,20.13
2022-09-26T09:52:01.934Z,19.76
2022-09-26T09:54:40.145Z,20.61
2022-09-26T09:57:34.736Z,23.19
2022-09-26T10:00:10.809Z,22.56
2022-09-26T10:03:17.986Z,23.57
2022-09-26T10:05:48.089Z,24.15
2022-09-26T10:08:31.458Z,25.23
2022-09-26T10:11:23.382Z,26.95
2022-09-26T10:14:05.268Z,25.11
2022-09-26T10:17:20.602Z,20.77
2022-09-26T10:19:53.822Z,20.26
2022-09-26T10:22:32.585Z,18.11
2022-09-26T10:25:03.913Z,18.07
2022-09-26T10:27:37.067Z,18.81
2022-09-26T10:30:21.927Z,20.19
2022-09-26T10:32:56.726Z,23.12
2022-09-26T10:35:47.561Z,23.67
2022-09-26T10:38:23.447Z,20.85
2022-09-26T10:41:25.415Z,22.92
2022-09-26T10:43:57.675Z,24.99
2022-09-26T10:46:46.847Z,21.29
2022-09-26T10:49:41.079Z,24.08
2022-09-26T10:52:31.955Z,26.48
2022-09-26T10:55:04.831Z,26.21
2022-09-26T10:57:36.874Z,26.69
2022-09-26T11:00:07.633Z,26.69
2022-09-26T11:02:37.827Z,25.91
2022-09-26T11:05:25.312Z,27.32
2022-09-26T11:08:00.559Z,30.58
2022-09-26T11:10:42.331Z,29.78
2022-09-26T11:13:32.800Z,28.04
2022-09-26T11:16:13.758Z,26.56
2022-09-26T11:18:52.953Z,27.79
2022-09-26T11:21:29.253Z,28.72
2022-09-26T11:24:12.876Z,28.43
2022-09-26T11:26:49.746Z,31.44
2022-09-26T11:29:23.333Z,29.33
2022-09-26T11:32:07.301Z,29.02
2022-09-26T11:35:02.526Z,28.22
2022-09-26T11:37:40.157Z,24.16
2022-09-26T11:40:24.099Z,27.53
2022-09-26T11:43:05.117Z,28.83
2022-09-26T11:45:47.473Z,27.20
2022-09-26T11:48:51.777Z,28.97
2022-09-26T11:52:04.903Z,28.35
2022-09-26T11:54:45.784Z,29.30
2022-09-26T11:57:29.758Z,25.47
2022-09-26T12:00:08.495Z,25.05
2022-09-26T12:03:26.551Z,24.94
2022-09-26T12:05:59.787Z,25.96
2022-09-26T12:08:51.851Z,28.80
2022-09-26T12:11:27.774Z,28.19
2022-09-26T12:14:03.055Z,25.44
2022-09-26T12:16:36.372Z,25.34
2022-09-26T12:19:12.861Z,24.38
2022-09-26T12:22:10.708Z,26.33
2022-09-26T12:24:45.359Z,23.74
2022-09-26T12:27:18.298Z,25.53
2022-09-26T12:29:51.929Z,29.35
2022-09-26T12:32:32.422Z,26.39
2022-09-26T12:35:04.346Z,25.00
2022-09-26T12:37:49.265Z,23.62
2022-09-26T12:40:25.847Z,22.99
2022-09-26T12:43:21.516Z,22.43
2022-09-26T12:46:08.258Z,21.77
2022-09-26T12:48:52.225Z,22.14
2022-09-26T12:51:28.744Z,21.04
2022-09-26T12:54:23.438Z,23.47
2022-09-26T12:56:54.870Z,23.16
2022-09-26T12:59:38.717Z,23.36
2022-09-26T13:02:41.812Z,22.33
2022-09-26T13:05:39.698Z,21.89
2022-09-26T13:08:12.989Z,23.19
2022-09-26T13:10:52.734Z,23.85
2022-09-26T13:13:52.633Z,25.60
2022-09-26T13:16:31.901Z,26.47
2022-09-26T13:19:07.266Z,27.14
2022-09-26T13:21:45.801Z,27.93
2022-09-26T13:24:18.984Z,27.83
2022-09-26T13:26:50.803Z,29.00
2022-09-26T13:29:23.105Z,28.36
2022-09-26T13:31:58.923Z,27.84
2022-09-26T13:34:34.903Z,27.68
2022-09-26T13:37:05.272Z,25.05
2022-09-26T13:39:36.127Z,22.10
2022-09-26T13:42:09.167Z,22.42
2022-09-26T13:44:53.318Z,21.34
2022-09-26T13:47:28.312Z,20.33
2022-09-26T13:50:04.588Z,20.01
2022-09-26T13:52:41.160Z,20.22
2022-09-26T13:55:16.517Z,21.04
2022-09-26T13:57:52.483Z,21.29
2022-09-26T14:00:48.875Z,21.10
2022-09-26T14:03:40.865Z,19.71
2022-09-26T14:06:36.681Z,18.78
2022-09-26T14:09:28.786Z,18.51
2022-09-26T14:12:21.456Z,17.48
2022-09-26T14:15:17.533Z,17.20
2022-09-26T14:18:15.534Z,17.03
2022-09-26T14:20:55.470Z,17.00
2022-09-26T14:23:43.694Z,16.83
2022-09-26T14:26:14.107Z,16.87
2022-09-26T14:28:51.776Z,16.95
2022-09-26T14:31:39.890Z,16.63
2022-09-26T14:34:17.500Z,16.49
2022-09-26T14:36:47.041Z,16.52
2022-09-26T14:39:36.389Z,16.49
2022-09-26T14:42:23.950Z,16.55
2022-09-26T14:44:57.449Z,16.56
2022-09-26T14:47:27.499Z,16.55
2022-09-26T14:50:01.407Z,16.62
2022-09-26T14:52:30.695Z,16.51
2022-09-26T14:55:02.623Z,16.45
2022-09-26T14:57:33.445Z,16.37
2022-09-26T15:00:03.608Z,16.35
2022-09-26T15:02:39.513Z,16.28
2022-09-26T15:05:22.344Z,16.27
2022-09-26T15:07:52.585Z,16.03
2022-09-26T15:10:25.539Z,15.84
2022-09-26T15:13:03.095Z,15.51
2022-09-26T15:15:48.795Z,15.52
2022-09-26T15:18:25.661Z,15.50
2022-09-26T15:21:03.248Z,15.44
2022-09-26T15:23:34.684Z,15.40
2022-09-26T15:26:06.143Z,15.36
2022-09-26T15:28:35.386Z,15.30
2022-09-26T15:31:21.351Z,15.29
2022-09-26T15:33:56.383Z,15.35
2022-09-26T15:36:25.217Z,15.44
2022-09-26T15:38:53.973Z,15.51
2022-09-26T15:41:41.569Z,15.47
2022-09-26T15:44:12.085Z,15.33
2022-09-26T15:46:41.783Z,15.25
2022-09-26T15:49:15.369Z,15.17
2022-09-26T15:51:44.626Z,15.04
2022-09-26T15:54:21.817Z,14.94
2022-09-26T15:56:54.788Z,14.85
2022-09-26T15:59:27.221Z,14.76
2022-09-26T16:01:55.809Z,14.71
2022-09-26T16:04:27.260Z,14.65
2022-09-26T16:07:01.372Z,14.55
2022-09-26T16:09:33.338Z,14.49
2022-09-26T16:12:05.491Z,14.39
2022-09-26T16:14:40.437Z,14.28
2022-09-26T16:17:21.619Z,14.14
2022-09-26T16:19:52.287Z,14.02
2022-09-26T16:22:40.624Z,13.95
2022-09-26T16:25:29.744Z,13.87
2022-09-26T16:28:32.234Z,13.82
2022-09-26T16:31:14.917Z,13.82
2022-09-26T16:33:51.424Z,13.84
2022-09-26T16:36:23.649Z,13.86
2022-09-26T16:38:54.447Z,13.90
2022-09-26T16:44:27.569Z,13.87
2022-09-26T16:47:03.372Z,13.81
2022-09-26T16:49:46.244Z,13.71
2022-09-26T16:52:31.612Z,13.72
2022-09-26T16:55:01.554Z,13.78
2022-09-26T16:57:32.514Z,13.72
2022-09-26T17:00:29.215Z,13.64
2022-09-26T17:02:59.334Z,13.59
2022-09-26T17:05:28.142Z,13.61
2022-09-26T17:07:56.654Z,13.54
2022-09-26T17:10:26.852Z,13.55
2022-09-26T17:12:56.455Z,13.53
2022-09-26T17:15:30.174Z,13.42
2022-09-26T17:18:01.268Z,13.37
2022-09-26T17:20:30.262Z,13.36
2022-09-26T17:23:16.818Z,13.23
2022-09-26T17:25:54.119Z,13.14
2022-09-26T17:28:30.029Z,13.16
2022-09-26T17:31:06.378Z,13.12
2022-09-26T17:33:40.742Z,13.13
2022-09-26T17:36:12.223Z,13.12
2022-09-26T17:38:41.305Z,13.08
2022-09-26T17:41:12.648Z,13.10
2022-09-26T17:43:41.313Z,13.09
2022-09-26T17:46:15.515Z,13.04
2022-09-26T17:48:46.141Z,12.98
2022-09-26T17:51:15.149Z,12.97
2022-09-26T17:53:51.080Z,12.95
2022-09-26T17:56:20.338Z,12.92
2022-09-26T17:58:49.728Z,12.85
2022-09-26T18:01:23.547Z,12.80
2022-09-26T18:03:56.340Z,12.72
2022-09-26T18:06:26.994Z,12.64
2022-09-26T18:08:59.758Z,12.53
2022-09-26T18:11:29.349Z,12.51
2022-09-26T18:13:58.068Z,12.44
2022-09-26T18:16:26.849Z,12.34
2022-09-26T18:18:57.160Z,12.24
2022-09-26T18:21:26.421Z,12.16
2022-09-26T18:23:58.230Z,12.02
2022-09-26T18:26:30.075Z,12.03
2022-09-26T18:28:59.659Z,11.99
2022-09-26T18:31:31.239Z,11.94
2022-09-26T18:34:03.229Z,11.86
2022-09-26T18:36:34.016Z,11.81
2022-09-26T18:39:02.821Z,11.72
2022-09-26T18:41:31.704Z,11.62
2022-09-26T18:44:02.938Z,11.52
2022-09-26T18:46:31.564Z,11.44
2022-09-26T18:49:08.582Z,11.46
2022-09-26T18:51:38.916Z,11.37
2022-09-26T18:54:11.781Z,11.36
2022-09-26T18:56:58.004Z,11.30
2022-09-26T18:59:29.028Z,11.25
2022-09-26T19:01:59.599Z,11.27
2022-09-26T19:04:31.596Z,11.14
2022-09-26T19:07:02.106Z,11.14
2022-09-26T19:09:34.255Z,11.17
2022-09-26T19:12:03.650Z,11.13
2022-09-26T19:14:33.016Z,11.11
2022-09-26T19:17:01.697Z,11.00
2022-09-26T19:19:32.605Z,11.01
2022-09-26T19:22:08.083Z,10.97
2022-09-26T19:24:39.113Z,11.00
2022-09-26T19:27:10.931Z,11.05
2022-09-26T19:29:42.276Z,11.08
2022-09-26T19:32:19.335Z,11.08
2022-09-26T19:34:51.854Z,11.10
2022-09-26T19:37:20.508Z,11.08
2022-09-26T19:39:49.313Z,11.06
2022-09-26T19:42:18.423Z,11.01
2022-09-26T19:44:47.106Z,10.96
2022-09-26T19:47:17.377Z,10.94
2022-09-26T19:49:47.235Z,10.91
2022-09-26T19:52:20.494Z,10.91
2022-09-26T19:54:53.345Z,10.86
2022-09-26T19:57:51.467Z,10.80
2022-09-26T20:00:26.578Z,10.75
2022-09-26T20:03:30.295Z,10.59
2022-09-26T20:06:32.494Z,10.52
2022-09-26T20:09:32.328Z,10.45
2022-09-26T20:12:06.215Z,10.38
2022-09-26T20:14:58.822Z,10.34
2022-09-26T20:17:58.519Z,10.28
2022-09-26T20:20:54.907Z,10.24
2022-09-26T20:23:52.910Z,10.20
2022-09-26T20:26:48.198Z,10.20
2022-09-26T20:30:04.169Z,10.19
2022-09-26T20:33:01.412Z,10.18
2022-09-26T20:36:03.205Z,10.19
2022-09-26T20:38:43.551Z,10.15
2022-09-26T20:41:15.289Z,10.12
2022-09-26T20:43:49.887Z,10.07
2022-09-26T20:46:21.791Z,10.07
2022-09-26T20:48:51.600Z,10.10
2022-09-26T20:51:22.724Z,10.07
2022-09-26T20:53:52.207Z,10.04
2022-09-26T20:56:22.060Z,10.05
2022-09-26T20:58:52.592Z,10.02
2022-09-26T21:01:23.083Z,10.01
2022-09-26T21:03:53.352Z,9.98
2022-09-26T21:06:24.045Z,9.99
2022-09-26T21:08:53.045Z,10.02
2022-09-26T21:11:23.095Z,10.04
2022-09-26T21:13:53.843Z,10.02
2022-09-26T21:16:24.059Z,10.05
2022-09-26T21:18:54.752Z,10.06
2022-09-26T21:21:25.981Z,10.05
2022-09-26T21:24:05.581Z,10.08
2022-09-26T21:26:34.958Z,10.13
2022-09-26T21:29:07.883Z,10.13
2022-09-26T21:31:36.798Z,10.15
2022-09-26T21:34:06.294Z,10.08
2022-09-26T21:36:37.396Z,10.06
2022-09-26T21:39:07.618Z,10.05
2022-09-26T21:41:37.370Z,10.01
2022-09-26T21:44:11.555Z,9.96
2022-09-26T21:46:40.020Z,9.93
2022-09-26T21:49:08.776Z,9.93
2022-09-26T21:51:37.943Z,9.94
2022-09-26T21:54:09.113Z,9.97
2022-09-26T21:56:40.648Z,9.97
2022-09-26T21:59:10.840Z,10.01
2022-09-26T22:01:39.330Z,10.00
2022-09-26T22:04:08.522Z,10.03
2022-09-26T22:06:37.339Z,10.04
2022-09-26T22:09:06.371Z,10.07
2022-09-26T22:11:37.581Z,10.13
2022-09-26T22:14:06.397Z,10.20
2022-09-26T22:16:36.151Z,10.25
2022-09-26T22:19:05.527Z,10.25
2022-09-26T22:21:34.223Z,10.25
2022-09-26T22:24:03.469Z,10.30
2022-09-26T22:26:32.185Z,10.27
2022-09-26T22:29:00.816Z,10.28
2022-09-26T22:31:29.120Z,10.32
2022-09-26T22:33:59.545Z,10.33
2022-09-26T22:36:28.047Z,10.34
2022-09-26T22:38:56.753Z,10.32
2022-09-26T22:41:25.430Z,10.32
2022-09-26T22:43:54.399Z,10.28
2022-09-26T22:46:23.341Z,10.34
2022-09-26T22:48:52.163Z,10.37
2022-09-26T22:51:22.221Z,10.38
2022-09-26T22:53:51.004Z,10.33
2022-09-26T22:56:19.949Z,10.38
2022-09-26T22:58:49.884Z,10.33
2022-09-26T23:01:22.417Z,10.27
2022-09-26T23:03:52.066Z,10.28
2022-09-26T23:06:22.680Z,10.24
2022-09-26T23:08:51.836Z,10.26
2022-09-26T23:11:22.027Z,10.25
2022-09-26T23:13:51.792Z,10.28
2022-09-26T23:16:22.514Z,10.24
2022-09-26T23:18:52.817Z,10.23
2022-09-26T23:21:24.498Z,10.27
2022-09-26T23:23:55.160Z,10.25
2022-09-26T23:26:25.685Z,10.28
2022-09-26T23:28:56.888Z,10.25
2022-09-26T23:31:27.604Z,10.22
2022-09-26T23:33:58.949Z,10.22
2022-09-26T23:36:29.006Z,10.22
2022-09-26T23:38:58.448Z,10.18
2022-09-26T23:41:27.116Z,10.17
2022-09-26T23:43:55.400Z,10.13
2022-09-26T23:46:24.268Z,10.06
2022-09-26T23:48:53.059Z,10.02
2022-09-26T23:51:22.008Z,10.03
2022-09-26T23:53:52.343Z,10.05
2022-09-26T23:56:21.315Z,10.06
2022-09-26T23:58:49.680Z,10.12
